sensor_id;sensor_type;location;lat;lon;timestamp;pressure;altitude;pressure_sealevel;temperature;humidity
73600;BME280;61877;48.246;9.220;2023-04-16T00:02:19;93942.56;;;5.62;92.80
73600;BME280;61877;48.246;9.220;2023-04-16T00:04:46;93947.16;;;5.70;92.09
73600;BME280;61877;48.246;9.220;2023-04-16T00:07:13;93947.16;;;5.70;92.55
73600;BME280;61877;48.246;9.220;2023-04-16T00:09:41;93952.31;;;5.67;91.84
73600;BME280;61877;48.246;9.220;2023-04-16T00:12:09;93947.47;;;5.69;92.43
73600;BME280;61877;48.246;9.220;2023-04-16T00:14:35;93946.97;;;5.67;92.59
73600;BME280;61877;48.246;9.220;2023-04-16T00:17:02;93952.63;;;5.65;92.73
73600;BME280;61877;48.246;9.220;2023-04-16T00:19:28;93952.94;;;5.72;93.21
73600;BME280;61877;48.246;9.220;2023-04-16T00:21:57;93956.69;;;5.71;93.22
73600;BME280;61877;48.246;9.220;2023-04-16T00:24:22;93954.81;;;5.72;93.49
73600;BME280;61877;48.246;9.220;2023-04-16T00:26:47;93947.00;;;5.75;93.40
73600;BME280;61877;48.246;9.220;2023-04-16T00:29:13;93960.31;;;5.75;93.37
73600;BME280;61877;48.246;9.220;2023-04-16T00:31:40;93956.88;;;5.75;93.59
73600;BME280;61877;48.246;9.220;2023-04-16T00:34:09;93956.25;;;5.78;93.59
73600;BME280;61877;48.246;9.220;2023-04-16T00:36:35;93951.72;;;5.78;93.90
73600;BME280;61877;48.246;9.220;2023-04-16T00:39:01;93948.72;;;5.80;94.47
73600;BME280;61877;48.246;9.220;2023-04-16T00:41:27;93955.34;;;5.91;93.69
73600;BME280;61877;48.246;9.220;2023-04-16T00:43:53;93948.16;;;5.91;93.00
73600;BME280;61877;48.246;9.220;2023-04-16T00:46:20;93955.19;;;5.96;92.45
73600;BME280;61877;48.246;9.220;2023-04-16T00:48:50;93947.06;;;5.92;93.33
73600;BME280;61877;48.246;9.220;2023-04-16T00:51:18;93957.53;;;5.89;93.23
73600;BME280;61877;48.246;9.220;2023-04-16T00:53:44;93961.63;;;5.95;92.99
73600;BME280;61877;48.246;9.220;2023-04-16T00:56:14;93958.19;;;5.94;94.75
73600;BME280;61877;48.246;9.220;2023-04-16T00:58:39;93962.41;;;5.95;93.30
73600;BME280;61877;48.246;9.220;2023-04-16T01:01:05;93955.69;;;5.98;93.33
73600;BME280;61877;48.246;9.220;2023-04-16T01:03:39;93962.72;;;5.94;93.28
73600;BME280;61877;48.246;9.220;2023-04-16T01:06:06;93962.09;;;5.88;94.23
73600;BME280;61877;48.246;9.220;2023-04-16T01:08:33;93960.34;;;5.92;94.32
73600;BME280;61877;48.246;9.220;2023-04-16T01:11:03;93958.31;;;5.89;94.53
73600;BME280;61877;48.246;9.220;2023-04-16T01:13:28;93956.94;;;5.92;94.42
73600;BME280;61877;48.246;9.220;2023-04-16T01:15:53;93957.69;;;5.92;95.36
73600;BME280;61877;48.246;9.220;2023-04-16T01:18:20;93968.69;;;5.99;94.20
73600;BME280;61877;48.246;9.220;2023-04-16T01:20:52;93968.34;;;5.92;93.90
73600;BME280;61877;48.246;9.220;2023-04-16T01:23:20;93965.84;;;5.96;94.68
73600;BME280;61877;48.246;9.220;2023-04-16T01:25:45;93973.22;;;5.99;93.57
73600;BME280;61877;48.246;9.220;2023-04-16T01:28:11;93971.19;;;5.96;94.07
73600;BME280;61877;48.246;9.220;2023-04-16T01:30:36;93969.78;;;5.98;93.74
73600;BME280;61877;48.246;9.220;2023-04-16T01:33:02;93969.16;;;6.01;93.02
73600;BME280;61877;48.246;9.220;2023-04-16T01:35:28;93970.41;;;6.04;93.54
73600;BME280;61877;48.246;9.220;2023-04-16T01:37:54;93969.94;;;6.02;92.89
73600;BME280;61877;48.246;9.220;2023-04-16T01:40:20;93970.38;;;5.95;93.21
73600;BME280;61877;48.246;9.220;2023-04-16T01:42:45;93964.59;;;5.93;93.74
73600;BME280;61877;48.246;9.220;2023-04-16T01:45:14;93975.84;;;5.90;93.73
73600;BME280;61877;48.246;9.220;2023-04-16T01:47:39;93971.97;;;5.96;93.03
73600;BME280;61877;48.246;9.220;2023-04-16T01:50:06;93981.19;;;5.90;93.24
73600;BME280;61877;48.246;9.220;2023-04-16T01:52:31;93979.13;;;5.87;94.41
73600;BME280;61877;48.246;9.220;2023-04-16T01:54:58;93969.75;;;5.90;94.04
73600;BME280;61877;48.246;9.220;2023-04-16T01:57:23;93981.66;;;5.92;93.67
73600;BME280;61877;48.246;9.220;2023-04-16T01:59:51;93976.03;;;5.94;93.84
73600;BME280;61877;48.246;9.220;2023-04-16T02:02:25;93979.63;;;5.98;93.54
73600;BME280;61877;48.246;9.220;2023-04-16T02:04:54;93981.19;;;5.99;91.98
73600;BME280;61877;48.246;9.220;2023-04-16T02:07:23;93983.69;;;5.95;93.28
73600;BME280;61877;48.246;9.220;2023-04-16T02:09:49;93988.09;;;5.91;93.54
73600;BME280;61877;48.246;9.220;2023-04-16T02:12:16;93979.97;;;5.96;92.87
73600;BME280;61877;48.246;9.220;2023-04-16T02:14:42;93984.31;;;5.92;93.46
73600;BME280;61877;48.246;9.220;2023-04-16T02:17:07;93987.47;;;5.94;93.11
73600;BME280;61877;48.246;9.220;2023-04-16T02:19:33;93983.84;;;5.90;93.13
73600;BME280;61877;48.246;9.220;2023-04-16T02:21:59;93981.34;;;5.94;94.09
73600;BME280;61877;48.246;9.220;2023-04-16T02:24:25;93980.59;;;5.93;93.22
73600;BME280;61877;48.246;9.220;2023-04-16T02:26:52;93983.56;;;5.92;93.93
73600;BME280;61877;48.246;9.220;2023-04-16T02:29:20;93978.81;;;5.89;94.43
73600;BME280;61877;48.246;9.220;2023-04-16T02:31:45;93988.09;;;5.91;94.23
73600;BME280;61877;48.246;9.220;2023-04-16T02:34:14;93988.09;;;5.91;94.76
73600;BME280;61877;48.246;9.220;2023-04-16T02:36:40;93985.13;;;6.01;93.25
73600;BME280;61877;48.246;9.220;2023-04-16T02:39:06;93983.84;;;5.99;93.23
73600;BME280;61877;48.246;9.220;2023-04-16T02:41:34;93983.84;;;5.99;93.44
73600;BME280;61877;48.246;9.220;2023-04-16T02:43:59;93987.78;;;6.01;93.89
73600;BME280;61877;48.246;9.220;2023-04-16T02:46:26;93987.97;;;6.05;93.37
73600;BME280;61877;48.246;9.220;2023-04-16T02:48:52;93981.38;;;6.02;93.58
73600;BME280;61877;48.246;9.220;2023-04-16T02:51:18;93983.53;;;6.00;93.64
73600;BME280;61877;48.246;9.220;2023-04-16T02:53:47;93986.06;;;5.97;94.32
73600;BME280;61877;48.246;9.220;2023-04-16T02:56:12;93981.38;;;6.02;93.35
73600;BME280;61877;48.246;9.220;2023-04-16T02:58:37;93982.47;;;6.01;93.63
73600;BME280;61877;48.246;9.220;2023-04-16T03:01:03;93985.94;;;6.02;93.69
73600;BME280;61877;48.246;9.220;2023-04-16T03:03:31;93990.16;;;6.03;93.40
73600;BME280;61877;48.246;9.220;2023-04-16T03:05:57;93993.44;;;6.00;93.49
73600;BME280;61877;48.246;9.220;2023-04-16T03:08:24;93989.50;;;5.97;93.80
73600;BME280;61877;48.246;9.220;2023-04-16T03:10:49;93983.25;;;6.02;93.03
73600;BME280;61877;48.246;9.220;2023-04-16T03:13:15;93991.53;;;6.00;93.14
73600;BME280;61877;48.246;9.220;2023-04-16T03:15:40;93991.53;;;5.92;93.93
73600;BME280;61877;48.246;9.220;2023-04-16T03:18:06;93996.88;;;5.92;94.36
73600;BME280;61877;48.246;9.220;2023-04-16T03:20:33;93991.81;;;5.90;94.49
73600;BME280;61877;48.246;9.220;2023-04-16T03:22:59;93994.03;;;5.88;94.85
73600;BME280;61877;48.246;9.220;2023-04-16T03:25:25;93992.44;;;5.87;94.65
73600;BME280;61877;48.246;9.220;2023-04-16T03:27:52;93995.28;;;5.91;94.35
73600;BME280;61877;48.246;9.220;2023-04-16T03:30:17;93997.31;;;5.94;93.42
73600;BME280;61877;48.246;9.220;2023-04-16T03:32:45;93994.50;;;5.90;95.04
73600;BME280;61877;48.246;9.220;2023-04-16T03:35:11;93999.38;;;5.88;95.10
73600;BME280;61877;48.246;9.220;2023-04-16T03:37:38;93998.41;;;5.84;95.68
73600;BME280;61877;48.246;9.220;2023-04-16T03:40:04;94000.28;;;5.92;95.45
73600;BME280;61877;48.246;9.220;2023-04-16T03:42:32;94000.28;;;5.92;94.57
73600;BME280;61877;48.246;9.220;2023-04-16T03:44:58;94005.63;;;5.92;94.53
73600;BME280;61877;48.246;9.220;2023-04-16T03:47:23;94000.91;;;5.89;94.54
73600;BME280;61877;48.246;9.220;2023-04-16T03:49:49;94010.31;;;5.87;95.67
73600;BME280;61877;48.246;9.220;2023-04-16T03:52:15;94003.44;;;5.94;93.77
73600;BME280;61877;48.246;9.220;2023-04-16T03:54:42;94010.94;;;5.92;94.55
73600;BME280;61877;48.246;9.220;2023-04-16T03:57:07;94010.94;;;5.92;94.34
73600;BME280;61877;48.246;9.220;2023-04-16T03:59:32;94011.44;;;5.94;93.86
73600;BME280;61877;48.246;9.220;2023-04-16T04:01:58;94012.06;;;5.91;94.66
73600;BME280;61877;48.246;9.220;2023-04-16T04:04:23;94000.13;;;5.89;94.01
73600;BME280;61877;48.246;9.220;2023-04-16T04:06:52;94005.44;;;5.89;94.67
73600;BME280;61877;48.246;9.220;2023-04-16T04:09:17;94006.25;;;5.89;94.87
73600;BME280;61877;48.246;9.220;2023-04-16T04:11:45;94010.94;;;5.92;94.23
73600;BME280;61877;48.246;9.220;2023-04-16T04:14:10;94008.28;;;5.92;94.16
73600;BME280;61877;48.246;9.220;2023-04-16T04:16:36;94007.50;;;6.00;94.13
73600;BME280;61877;48.246;9.220;2023-04-16T04:19:01;94013.63;;;6.01;93.53
73600;BME280;61877;48.246;9.220;2023-04-16T04:21:27;94012.84;;;6.00;93.79
73600;BME280;61877;48.246;9.220;2023-04-16T04:23:53;94023.34;;;5.97;94.57
73600;BME280;61877;48.246;9.220;2023-04-16T04:26:19;94015.63;;;5.95;94.67
73600;BME280;61877;48.246;9.220;2023-04-16T04:28:46;94020.81;;;5.92;94.51
73600;BME280;61877;48.246;9.220;2023-04-16T04:31:12;94019.41;;;5.94;94.51
73600;BME280;61877;48.246;9.220;2023-04-16T04:33:37;94023.50;;;5.92;94.45
73600;BME280;61877;48.246;9.220;2023-04-16T04:36:04;94034.59;;;5.94;94.89
73600;BME280;61877;48.246;9.220;2023-04-16T04:38:30;94030.06;;;5.94;93.93
73600;BME280;61877;48.246;9.220;2023-04-16T04:40:58;94036.94;;;5.95;94.66
73600;BME280;61877;48.246;9.220;2023-04-16T04:43:24;94036.34;;;5.98;94.32
73600;BME280;61877;48.246;9.220;2023-04-16T04:45:54;94031.47;;;5.92;95.36
73600;BME280;61877;48.246;9.220;2023-04-16T04:48:20;94035.53;;;5.89;95.33
73600;BME280;61877;48.246;9.220;2023-04-16T04:50:46;94040.41;;;5.96;94.57
73600;BME280;61877;48.246;9.220;2023-04-16T04:53:12;94039.16;;;5.93;95.14
73600;BME280;61877;48.246;9.220;2023-04-16T04:55:38;94040.72;;;5.94;95.48
73600;BME280;61877;48.246;9.220;2023-04-16T04:58:07;94051.84;;;5.96;95.35
73600;BME280;61877;48.246;9.220;2023-04-16T05:00:35;94049.84;;;6.02;94.77
73600;BME280;61877;48.246;9.220;2023-04-16T05:03:07;94050.44;;;6.07;93.52
73600;BME280;61877;48.246;9.220;2023-04-16T05:05:33;94041.84;;;6.02;94.34
73600;BME280;61877;48.246;9.220;2023-04-16T05:07:59;94054.22;;;6.06;94.53
73600;BME280;61877;48.246;9.220;2023-04-16T05:10:25;94059.25;;;6.08;94.56
73600;BME280;61877;48.246;9.220;2023-04-16T05:12:52;94052.03;;;6.08;95.01
73600;BME280;61877;48.246;9.220;2023-04-16T05:15:17;94067.88;;;6.13;95.19
73600;BME280;61877;48.246;9.220;2023-04-16T05:17:43;94055.47;;;6.09;94.72
73600;BME280;61877;48.246;9.220;2023-04-16T05:20:10;94065.53;;;6.20;93.45
73600;BME280;61877;48.246;9.220;2023-04-16T05:22:36;94071.00;;;6.24;93.58
73600;BME280;61877;48.246;9.220;2023-04-16T05:25:01;94070.25;;;6.32;92.85
73600;BME280;61877;48.246;9.220;2023-04-16T05:27:28;94067.75;;;6.35;92.42
73600;BME280;61877;48.246;9.220;2023-04-16T05:29:54;94075.75;;;6.35;92.87
73600;BME280;61877;48.246;9.220;2023-04-16T05:32:20;94079.38;;;6.39;92.73
73600;BME280;61877;48.246;9.220;2023-04-16T05:34:46;94079.22;;;6.44;92.30
73600;BME280;61877;48.246;9.220;2023-04-16T05:37:13;94074.50;;;6.41;92.76
73600;BME280;61877;48.246;9.220;2023-04-16T05:39:39;94079.38;;;6.48;92.91
73600;BME280;61877;48.246;9.220;2023-04-16T05:42:04;94082.34;;;6.38;93.14
73600;BME280;61877;48.246;9.220;2023-04-16T05:44:30;94083.75;;;6.44;93.18
73600;BME280;61877;48.246;9.220;2023-04-16T05:46:55;94087.97;;;6.36;93.87
73600;BME280;61877;48.246;9.220;2023-04-16T05:49:23;94090.50;;;6.41;92.97
73600;BME280;61877;48.246;9.220;2023-04-16T05:51:49;94090.34;;;6.46;92.97
73600;BME280;61877;48.246;9.220;2023-04-16T05:54:16;94095.06;;;6.49;93.01
73600;BME280;61877;48.246;9.220;2023-04-16T05:56:43;94089.72;;;6.49;92.15
73600;BME280;61877;48.246;9.220;2023-04-16T05:59:09;94095.38;;;6.57;92.57
73600;BME280;61877;48.246;9.220;2023-04-16T06:01:38;94095.38;;;6.57;92.58
73600;BME280;61877;48.246;9.220;2023-04-16T06:04:04;94098.06;;;6.57;93.11
73600;BME280;61877;48.246;9.220;2023-04-16T06:06:30;94103.22;;;6.62;93.51
73600;BME280;61877;48.246;9.220;2023-04-16T06:08:56;94100.25;;;6.54;92.43
73600;BME280;61877;48.246;9.220;2023-04-16T06:11:23;94099.28;;;6.59;93.26
73600;BME280;61877;48.246;9.220;2023-04-16T06:13:48;94104.00;;;6.62;93.28
73600;BME280;61877;48.246;9.220;2023-04-16T06:16:14;94103.69;;;6.64;92.61
73600;BME280;61877;48.246;9.220;2023-04-16T06:18:40;94107.31;;;6.68;92.15
73600;BME280;61877;48.246;9.220;2023-04-16T06:21:05;94101.19;;;6.76;91.44
73600;BME280;61877;48.246;9.220;2023-04-16T06:23:31;94104.34;;;6.69;90.81
73600;BME280;61877;48.246;9.220;2023-04-16T06:25:57;94102.59;;;6.65;92.03
73600;BME280;61877;48.246;9.220;2023-04-16T06:28:24;94110.75;;;6.77;92.17
73600;BME280;61877;48.246;9.220;2023-04-16T06:30:49;94104.19;;;6.83;91.85
73600;BME280;61877;48.246;9.220;2023-04-16T06:33:15;94106.88;;;6.91;90.67
73600;BME280;61877;48.246;9.220;2023-04-16T06:35:41;94105.59;;;6.97;91.40
73600;BME280;61877;48.246;9.220;2023-04-16T06:38:12;94112.34;;;7.12;91.00
73600;BME280;61877;48.246;9.220;2023-04-16T06:40:40;94114.53;;;7.18;89.90
73600;BME280;61877;48.246;9.220;2023-04-16T06:43:06;94109.81;;;7.24;88.11
73600;BME280;61877;48.246;9.220;2023-04-16T06:45:33;94114.53;;;7.18;88.70
73600;BME280;61877;48.246;9.220;2023-04-16T06:48:02;94110.94;;;7.23;89.65
73600;BME280;61877;48.246;9.220;2023-04-16T06:50:31;94120.03;;;7.30;88.01
73600;BME280;61877;48.246;9.220;2023-04-16T06:52:56;94115.47;;;7.31;88.29
73600;BME280;61877;48.246;9.220;2023-04-16T06:55:22;94116.25;;;7.31;90.07
73600;BME280;61877;48.246;9.220;2023-04-16T06:57:47;94121.41;;;7.36;89.26
73600;BME280;61877;48.246;9.220;2023-04-16T07:00:19;94121.28;;;7.24;87.90
73600;BME280;61877;48.246;9.220;2023-04-16T07:02:48;94129.47;;;7.28;88.98
73600;BME280;61877;48.246;9.220;2023-04-16T07:05:17;94131.00;;;7.29;89.34
73600;BME280;61877;48.246;9.220;2023-04-16T07:07:45;94123.97;;;7.33;89.73
73600;BME280;61877;48.246;9.220;2023-04-16T07:10:10;94129.72;;;7.43;90.07
73600;BME280;61877;48.246;9.220;2023-04-16T07:12:38;94127.22;;;7.55;90.05
73600;BME280;61877;48.246;9.220;2023-04-16T07:15:05;94125.75;;;7.75;90.57
73600;BME280;61877;48.246;9.220;2023-04-16T07:17:31;94129.97;;;7.84;87.86
73600;BME280;61877;48.246;9.220;2023-04-16T07:19:58;94128.94;;;7.51;87.38
73600;BME280;61877;48.246;9.220;2023-04-16T07:22:29;94135.88;;;7.44;88.30
73600;BME280;61877;48.246;9.220;2023-04-16T07:24:55;94128.63;;;7.53;88.68
73600;BME280;61877;48.246;9.220;2023-04-16T07:27:23;94134.00;;;7.27;89.52
73600;BME280;61877;48.246;9.220;2023-04-16T07:29:48;94140.28;;;7.23;89.81
73600;BME280;61877;48.246;9.220;2023-04-16T07:32:14;94140.41;;;7.26;89.99
73600;BME280;61877;48.246;9.220;2023-04-16T07:35:01;94142.75;;;7.36;90.46
73600;BME280;61877;48.246;9.220;2023-04-16T07:37:26;94138.69;;;7.30;90.48
73600;BME280;61877;48.246;9.220;2023-04-16T07:39:52;94146.38;;;7.49;88.95
73600;BME280;61877;48.246;9.220;2023-04-16T07:42:20;94149.69;;;7.46;88.46
73600;BME280;61877;48.246;9.220;2023-04-16T07:44:45;94148.53;;;7.72;87.18
73600;BME280;61877;48.246;9.220;2023-04-16T07:47:10;94149.59;;;7.97;86.22
73600;BME280;61877;48.246;9.220;2023-04-16T07:49:37;94149.72;;;8.01;85.87
73600;BME280;61877;48.246;9.220;2023-04-16T07:52:11;94150.59;;;8.30;84.94
73600;BME280;61877;48.246;9.220;2023-04-16T07:54:36;94146.91;;;8.43;86.52
73600;BME280;61877;48.246;9.220;2023-04-16T07:57:02;94166.53;;;8.01;84.85
73600;BME280;61877;48.246;9.220;2023-04-16T07:59:27;94162.47;;;7.95;84.95
73600;BME280;61877;48.246;9.220;2023-04-16T08:01:53;94169.38;;;7.96;85.60
73600;BME280;61877;48.246;9.220;2023-04-16T08:04:19;94165.59;;;8.06;85.33
73600;BME280;61877;48.246;9.220;2023-04-16T08:06:56;94170.31;;;8.00;87.40
73600;BME280;61877;48.246;9.220;2023-04-16T08:09:25;94172.69;;;7.84;85.18
73600;BME280;61877;48.246;9.220;2023-04-16T08:11:51;94170.94;;;7.97;85.88
73600;BME280;61877;48.246;9.220;2023-04-16T08:14:26;94168.28;;;7.88;87.15
73600;BME280;61877;48.246;9.220;2023-04-16T08:16:51;94178.81;;;7.85;86.44
73600;BME280;61877;48.246;9.220;2023-04-16T08:19:31;94179.31;;;7.70;88.02
73600;BME280;61877;48.246;9.220;2023-04-16T08:22:47;94184.03;;;7.64;87.33
73600;BME280;61877;48.246;9.220;2023-04-16T08:25:20;94186.88;;;7.59;86.61
73600;BME280;61877;48.246;9.220;2023-04-16T08:27:46;94190.16;;;7.56;87.80
73600;BME280;61877;48.246;9.220;2023-04-16T08:30:21;94188.78;;;7.59;88.54
73600;BME280;61877;48.246;9.220;2023-04-16T08:33:04;94192.34;;;7.63;87.34
73600;BME280;61877;48.246;9.220;2023-04-16T08:35:58;94196.16;;;7.62;86.42
73600;BME280;61877;48.246;9.220;2023-04-16T08:38:23;94198.66;;;7.67;87.27
73600;BME280;61877;48.246;9.220;2023-04-16T08:40:55;94199.44;;;7.67;86.66
73600;BME280;61877;48.246;9.220;2023-04-16T08:43:45;94208.09;;;7.56;87.07
73600;BME280;61877;48.246;9.220;2023-04-16T08:46:46;94211.03;;;7.63;87.29
73600;BME280;61877;48.246;9.220;2023-04-16T08:49:16;94201.81;;;7.52;86.89
73600;BME280;61877;48.246;9.220;2023-04-16T08:51:53;94210.13;;;7.50;89.08
73600;BME280;61877;48.246;9.220;2023-04-16T08:54:31;94203.50;;;7.48;87.98
73600;BME280;61877;48.246;9.220;2023-04-16T08:57:03;94211.69;;;7.60;88.35
73600;BME280;61877;48.246;9.220;2023-04-16T08:59:29;94211.06;;;7.46;88.32
73600;BME280;61877;48.246;9.220;2023-04-16T09:01:56;94215.94;;;7.44;87.40
73600;BME280;61877;48.246;9.220;2023-04-16T09:04:24;94213.59;;;7.42;88.76
73600;BME280;61877;48.246;9.220;2023-04-16T09:06:50;94225.97;;;7.47;89.50
73600;BME280;61877;48.246;9.220;2023-04-16T09:09:17;94235.72;;;7.34;90.74
73600;BME280;61877;48.246;9.220;2023-04-16T09:11:44;94228.63;;;7.21;89.76
73600;BME280;61877;48.246;9.220;2023-04-16T09:14:14;94235.22;;;7.24;90.39
73600;BME280;61877;48.246;9.220;2023-04-16T09:16:39;94233.81;;;7.26;90.62
73600;BME280;61877;48.246;9.220;2023-04-16T09:19:05;94238.53;;;7.29;89.63
73600;BME280;61877;48.246;9.220;2023-04-16T09:21:31;94245.09;;;7.15;90.90
73600;BME280;61877;48.246;9.220;2023-04-16T09:24:02;94243.53;;;7.14;91.13
73600;BME280;61877;48.246;9.220;2023-04-16T09:26:28;94247.59;;;7.20;92.03
73600;BME280;61877;48.246;9.220;2023-04-16T09:28:54;94245.09;;;7.15;89.83
73600;BME280;61877;48.246;9.220;2023-04-16T09:31:21;94245.13;;;7.32;90.65
73600;BME280;61877;48.246;9.220;2023-04-16T09:34:00;94247.16;;;7.18;89.39
73600;BME280;61877;48.246;9.220;2023-04-16T09:36:26;94255.31;;;7.30;90.19
73600;BME280;61877;48.246;9.220;2023-04-16T09:38:52;94253.00;;;7.45;89.15
73600;BME280;61877;48.246;9.220;2023-04-16T09:41:18;94248.09;;;7.64;87.39
73600;BME280;61877;48.246;9.220;2023-04-16T09:43:53;94251.41;;;7.78;87.62
73600;BME280;61877;48.246;9.220;2023-04-16T09:46:18;94247.94;;;7.69;86.21
73600;BME280;61877;48.246;9.220;2023-04-16T09:48:45;94246.22;;;7.82;87.43
73600;BME280;61877;48.246;9.220;2023-04-16T09:51:10;94248.25;;;8.02;86.69
73600;BME280;61877;48.246;9.220;2023-04-16T09:53:35;94253.75;;;7.97;86.46
73600;BME280;61877;48.246;9.220;2023-04-16T09:56:03;94252.66;;;7.81;86.82
73600;BME280;61877;48.246;9.220;2023-04-16T09:58:29;94260.06;;;7.67;86.84
73600;BME280;61877;48.246;9.220;2023-04-16T10:00:55;94259.91;;;7.72;87.28
73600;BME280;61877;48.246;9.220;2023-04-16T10:03:28;94260.84;;;7.67;87.00
73600;BME280;61877;48.246;9.220;2023-04-16T10:05:54;94267.75;;;7.60;88.20
73600;BME280;61877;48.246;9.220;2023-04-16T10:08:20;94268.22;;;7.70;87.66
73600;BME280;61877;48.246;9.220;2023-04-16T10:10:45;94265.88;;;7.69;86.77
73600;BME280;61877;48.246;9.220;2023-04-16T10:13:11;94270.28;;;7.82;86.01
73600;BME280;61877;48.246;9.220;2023-04-16T10:15:37;94269.63;;;7.68;86.81
73600;BME280;61877;48.246;9.220;2023-04-16T10:18:03;94276.25;;;7.79;87.46
73600;BME280;61877;48.246;9.220;2023-04-16T10:20:29;94278.13;;;7.70;87.34
73600;BME280;61877;48.246;9.220;2023-04-16T10:22:56;94276.84;;;7.50;88.08
73600;BME280;61877;48.246;9.220;2023-04-16T10:25:23;94277.47;;;7.64;89.43
73600;BME280;61877;48.246;9.220;2023-04-16T10:27:49;94275.94;;;7.80;87.84
73600;BME280;61877;48.246;9.220;2023-04-16T10:30:15;94282.66;;;7.86;86.03
73600;BME280;61877;48.246;9.220;2023-04-16T10:32:41;94274.19;;;8.02;86.22
73600;BME280;61877;48.246;9.220;2023-04-16T10:35:08;94278.13;;;7.87;85.44
73600;BME280;61877;48.246;9.220;2023-04-16T10:37:35;94283.13;;;8.06;86.25
73600;BME280;61877;48.246;9.220;2023-04-16T10:40:21;94275.94;;;7.89;86.17
73600;BME280;61877;48.246;9.220;2023-04-16T10:43:02;94277.81;;;7.80;85.94
73600;BME280;61877;48.246;9.220;2023-04-16T10:45:31;94279.19;;;7.95;86.65
73600;BME280;61877;48.246;9.220;2023-04-16T10:47:57;94277.00;;;7.97;86.35
73600;BME280;61877;48.246;9.220;2023-04-16T10:50:23;94277.47;;;7.99;86.38
73600;BME280;61877;48.246;9.220;2023-04-16T10:52:48;94274.19;;;7.93;85.19
73600;BME280;61877;48.246;9.220;2023-04-16T10:55:16;94280.63;;;7.92;86.29
73600;BME280;61877;48.246;9.220;2023-04-16T10:57:42;94279.53;;;7.93;86.84
73600;BME280;61877;48.246;9.220;2023-04-16T11:00:20;94280.31;;;7.85;87.50
73600;BME280;61877;48.246;9.220;2023-04-16T11:02:46;94276.84;;;8.10;86.42
73600;BME280;61877;48.246;9.220;2023-04-16T11:05:11;94280.31;;;8.11;85.26
73600;BME280;61877;48.246;9.220;2023-04-16T11:07:46;94279.69;;;8.05;87.68
73600;BME280;61877;48.246;9.220;2023-04-16T11:10:15;94278.41;;;8.11;85.36
73600;BME280;61877;48.246;9.220;2023-04-16T11:12:41;94279.38;;;7.89;85.17
73600;BME280;61877;48.246;9.220;2023-04-16T11:15:09;94273.25;;;7.72;86.94
73600;BME280;61877;48.246;9.220;2023-04-16T11:17:37;94271.06;;;7.82;87.96
73600;BME280;61877;48.246;9.220;2023-04-16T11:20:07;94271.81;;;7.83;88.06
73600;BME280;61877;48.246;9.220;2023-04-16T11:22:34;94274.97;;;7.76;86.56
73600;BME280;61877;48.246;9.220;2023-04-16T11:25:02;94275.94;;;7.89;86.46
73600;BME280;61877;48.246;9.220;2023-04-16T11:27:35;94277.50;;;7.90;87.11
73600;BME280;61877;48.246;9.220;2023-04-16T11:30:02;94278.56;;;7.98;87.81
73600;BME280;61877;48.246;9.220;2023-04-16T11:32:30;94276.69;;;7.89;86.63
73600;BME280;61877;48.246;9.220;2023-04-16T11:34:55;94281.75;;;7.82;87.53
73600;BME280;61877;48.246;9.220;2023-04-16T11:37:30;94285.66;;;7.68;87.12
73600;BME280;61877;48.246;9.220;2023-04-16T11:39:59;94284.56;;;7.77;87.95
73600;BME280;61877;48.246;9.220;2023-04-16T11:42:26;94288.97;;;7.73;88.11
73600;BME280;61877;48.246;9.220;2023-04-16T11:45:00;94299.50;;;7.87;88.26
73600;BME280;61877;48.246;9.220;2023-04-16T11:47:26;94294.47;;;7.77;88.01
73600;BME280;61877;48.246;9.220;2023-04-16T11:49:54;94298.06;;;7.81;87.31
73600;BME280;61877;48.246;9.220;2023-04-16T11:52:24;94297.91;;;7.69;88.23
73600;BME280;61877;48.246;9.220;2023-04-16T11:54:51;94297.25;;;7.55;89.92
73600;BME280;61877;48.246;9.220;2023-04-16T11:57:25;94289.75;;;7.65;87.93
73600;BME280;61877;48.246;9.220;2023-04-16T11:59:52;94302.31;;;7.65;88.94
73600;BME280;61877;48.246;9.220;2023-04-16T12:02:35;94294.31;;;7.91;87.57
73600;BME280;61877;48.246;9.220;2023-04-16T12:05:01;94299.19;;;7.97;86.83
73600;BME280;61877;48.246;9.220;2023-04-16T12:07:26;94296.34;;;8.02;87.26
73600;BME280;61877;48.246;9.220;2023-04-16T12:10:04;94307.81;;;7.85;87.40
73600;BME280;61877;48.246;9.220;2023-04-16T12:12:30;94303.13;;;7.82;87.68
73600;BME280;61877;48.246;9.220;2023-04-16T12:15:00;94310.81;;;7.84;89.84
73600;BME280;61877;48.246;9.220;2023-04-16T12:17:26;94305.94;;;7.69;89.90
73600;BME280;61877;48.246;9.220;2023-04-16T12:19:55;94312.19;;;7.64;89.95
73600;BME280;61877;48.246;9.220;2023-04-16T12:22:28;94320.06;;;7.61;89.96
73600;BME280;61877;48.246;9.220;2023-04-16T12:25:00;94316.13;;;7.58;88.70
73600;BME280;61877;48.246;9.220;2023-04-16T12:27:40;94313.78;;;7.82;88.73
73600;BME280;61877;48.246;9.220;2023-04-16T12:30:08;94319.59;;;7.84;87.67
73600;BME280;61877;48.246;9.220;2023-04-16T12:32:33;94317.72;;;7.94;87.86
73600;BME280;61877;48.246;9.220;2023-04-16T12:34:59;94318.50;;;7.85;86.92
73600;BME280;61877;48.246;9.220;2023-04-16T12:37:24;94317.72;;;7.85;88.11
73600;BME280;61877;48.246;9.220;2023-04-16T12:39:50;94319.75;;;7.97;85.31
73600;BME280;61877;48.246;9.220;2023-04-16T12:42:15;94315.00;;;8.19;85.86
73600;BME280;61877;48.246;9.220;2023-04-16T12:44:40;94315.47;;;8.21;86.89
73600;BME280;61877;48.246;9.220;2023-04-16T12:47:11;94308.91;;;8.27;85.58
73600;BME280;61877;48.246;9.220;2023-04-16T12:49:36;94312.19;;;8.33;86.57
73600;BME280;61877;48.246;9.220;2023-04-16T12:52:04;94317.06;;;8.31;85.84
73600;BME280;61877;48.246;9.220;2023-04-16T12:54:30;94309.53;;;8.16;83.98
73600;BME280;61877;48.246;9.220;2023-04-16T12:56:57;94321.16;;;8.11;85.25
73600;BME280;61877;48.246;9.220;2023-04-16T12:59:23;94325.09;;;8.05;85.47
73600;BME280;61877;48.246;9.220;2023-04-16T13:01:50;94321.94;;;8.20;85.68
73600;BME280;61877;48.246;9.220;2023-04-16T13:04:17;94324.00;;;8.40;85.63
73600;BME280;61877;48.246;9.220;2023-04-16T13:06:42;94323.03;;;8.36;83.63
73600;BME280;61877;48.246;9.220;2023-04-16T13:09:08;94322.72;;;8.21;84.68
73600;BME280;61877;48.246;9.220;2023-04-16T13:11:34;94314.69;;;8.46;83.44
73600;BME280;61877;48.246;9.220;2023-04-16T13:14:01;94314.38;;;8.39;84.00